sensor_id;sensor_type;location;lat;lon;timestamp;pressure;altitude;pressure_sealevel;temperature;humidity
64158;BME280;50449;51.528;5.076;2022-08-21T00:00:14;101611.03;;;23.70;42.94
64158;BME280;50449;51.528;5.076;2022-08-21T00:02:51;101605.03;;;23.68;42.67
64158;BME280;50449;51.528;5.076;2022-08-21T00:05:17;101609.22;;;23.65;42.89
64158;BME280;50449;51.528;5.076;2022-08-21T00:07:43;101602.38;;;23.63;42.77
64158;BME280;50449;51.528;5.076;2022-08-21T00:10:09;101594.44;;;23.61;43.17
64158;BME280;50449;51.528;5.076;2022-08-21T00:12:34;101599.72;;;23.58;42.81
64158;BME280;50449;51.528;5.076;2022-08-21T00:15:00;101597.28;;;23.56;43.34
64158;BME280;50449;51.528;5.076;2022-08-21T00:17:26;101598.72;;;23.53;43.35
64158;BME280;50449;51.528;5.076;2022-08-21T00:19:51;101598.22;;;23.51;42.92
64158;BME280;50449;51.528;5.076;2022-08-21T00:22:16;101580.38;;;23.49;43.31
64158;BME280;50449;51.528;5.076;2022-08-21T00:24:42;101577.38;;;23.45;42.81
64158;BME280;50449;51.528;5.076;2022-08-21T00:27:07;101583.22;;;23.44;43.38
64158;BME280;50449;51.528;5.076;2022-08-21T00:29:33;101578.31;;;23.41;43.34
64158;BME280;50449;51.528;5.076;2022-08-21T00:31:58;101573.13;;;23.39;43.31
64158;BME280;50449;51.528;5.076;2022-08-21T00:34:24;101574.56;;;23.37;43.05
64158;BME280;50449;51.528;5.076;2022-08-21T00:36:49;101576.81;;;23.35;43.27
64158;BME280;50449;51.528;5.076;2022-08-21T00:39:15;101576.28;;;23.32;42.92
64158;BME280;50449;51.528;5.076;2022-08-21T00:41:41;101572.22;;;23.30;43.02
64158;BME280;50449;51.528;5.076;2022-08-21T00:44:10;101578.34;;;23.27;43.29
64158;BME280;50449;51.528;5.076;2022-08-21T00:46:37;101582.25;;;23.26;42.96
64158;BME280;50449;51.528;5.076;2022-08-21T00:49:04;101576.50;;;23.22;43.13
64158;BME280;50449;51.528;5.076;2022-08-21T00:51:38;101577.66;;;23.21;43.17
64158;BME280;50449;51.528;5.076;2022-08-21T00:54:05;101578.25;;;23.18;43.42
64158;BME280;50449;51.528;5.076;2022-08-21T00:56:32;101580.50;;;23.16;42.94
64158;BME280;50449;51.528;5.076;2022-08-21T00:58:58;101581.94;;;23.14;42.98
64158;BME280;50449;51.528;5.076;2022-08-21T01:01:25;101578.66;;;23.11;43.13
64158;BME280;50449;51.528;5.076;2022-08-21T01:03:50;101567.94;;;23.10;43.25
64158;BME280;50449;51.528;5.076;2022-08-21T01:06:16;101574.88;;;23.07;43.33
64158;BME280;50449;51.528;5.076;2022-08-21T01:08:42;101570.00;;;23.04;42.92
64158;BME280;50449;51.528;5.076;2022-08-21T01:11:08;101566.72;;;23.02;43.47
64158;BME280;50449;51.528;5.076;2022-08-21T01:13:36;101573.38;;;23.01;43.56
64158;BME280;50449;51.528;5.076;2022-08-21T01:16:04;101563.78;;;22.99;42.87
64158;BME280;50449;51.528;5.076;2022-08-21T01:18:30;101569.03;;;22.95;43.44
64158;BME280;50449;51.528;5.076;2022-08-21T01:23:30;101561.41;;;22.92;43.01
64158;BME280;50449;51.528;5.076;2022-08-21T01:25:55;101568.34;;;22.89;43.15
64158;BME280;50449;51.528;5.076;2022-08-21T01:28:21;101564.25;;;22.87;43.54
64158;BME280;50449;51.528;5.076;2022-08-21T01:30:48;101563.75;;;22.85;43.45
64158;BME280;50449;51.528;5.076;2022-08-21T01:33:17;101574.25;;;22.83;43.47
64158;BME280;50449;51.528;5.076;2022-08-21T01:35:43;101572.91;;;22.80;43.20
64158;BME280;50449;51.528;5.076;2022-08-21T01:38:08;101580.69;;;22.78;43.52
64158;BME280;50449;51.528;5.076;2022-08-21T01:40:34;101574.66;;;22.76;43.54
64158;BME280;50449;51.528;5.076;2022-08-21T01:43:00;101579.66;;;22.74;43.29
64158;BME280;50449;51.528;5.076;2022-08-21T01:45:25;101579.13;;;22.72;43.76
64158;BME280;50449;51.528;5.076;2022-08-21T01:47:51;101573.09;;;22.70;42.97
64158;BME280;50449;51.528;5.076;2022-08-21T01:50:19;101573.72;;;22.67;43.64
64158;BME280;50449;51.528;5.076;2022-08-21T01:52:45;101573.22;;;22.65;43.28
64158;BME280;50449;51.528;5.076;2022-08-21T01:55:15;101570.78;;;22.63;43.43
64158;BME280;50449;51.528;5.076;2022-08-21T01:57:41;101571.06;;;22.62;43.68
64158;BME280;50449;51.528;5.076;2022-08-21T02:00:10;101577.19;;;22.59;43.76
64158;BME280;50449;51.528;5.076;2022-08-21T02:02:36;101576.66;;;22.57;43.51
64158;BME280;50449;51.528;5.076;2022-08-21T02:05:03;101563.50;;;22.54;43.40
64158;BME280;50449;51.528;5.076;2022-08-21T02:07:36;101569.31;;;22.52;43.86
64158;BME280;50449;51.528;5.076;2022-08-21T02:10:05;101571.53;;;22.50;43.45
64158;BME280;50449;51.528;5.076;2022-08-21T02:12:31;101566.66;;;22.47;43.75
64158;BME280;50449;51.528;5.076;2022-08-21T02:14:56;101563.38;;;22.45;43.76
64158;BME280;50449;51.528;5.076;2022-08-21T02:17:21;101564.50;;;22.44;43.50
64158;BME280;50449;51.528;5.076;2022-08-21T02:19:47;101567.06;;;22.40;43.47
64158;BME280;50449;51.528;5.076;2022-08-21T02:22:13;101567.34;;;22.39;43.66
64158;BME280;50449;51.528;5.076;2022-08-21T02:24:40;101563.00;;;22.38;43.39
64158;BME280;50449;51.528;5.076;2022-08-21T02:27:05;101564.69;;;22.34;43.91
64158;BME280;50449;51.528;5.076;2022-08-21T02:29:31;101561.94;;;22.34;43.90
64158;BME280;50449;51.528;5.076;2022-08-21T02:31:56;101561.44;;;22.32;43.93
64158;BME280;50449;51.528;5.076;2022-08-21T02:34:21;101557.34;;;22.29;43.52
64158;BME280;50449;51.528;5.076;2022-08-21T02:36:47;101554.06;;;22.27;43.95
64158;BME280;50449;51.528;5.076;2022-08-21T02:39:13;101556.31;;;22.25;44.00
64158;BME280;50449;51.528;5.076;2022-08-21T02:41:39;101549.47;;;22.22;43.91
64158;BME280;50449;51.528;5.076;2022-08-21T02:44:04;101547.84;;;22.21;43.46
64158;BME280;50449;51.528;5.076;2022-08-21T02:46:29;101546.47;;;22.19;44.15
64158;BME280;50449;51.528;5.076;2022-08-21T02:48:55;101552.28;;;22.17;43.56
64158;BME280;50449;51.528;5.076;2022-08-21T02:51:20;101548.19;;;22.15;44.01
64158;BME280;50449;51.528;5.076;2022-08-21T02:53:48;101544.94;;;22.13;44.16
64158;BME280;50449;51.528;5.076;2022-08-21T02:56:19;101547.19;;;22.11;43.83
64158;BME280;50449;51.528;5.076;2022-08-21T02:58:49;101545.84;;;22.08;44.04
64158;BME280;50449;51.528;5.076;2022-08-21T03:01:16;101545.31;;;22.06;43.62
64158;BME280;50449;51.528;5.076;2022-08-21T03:03:43;101544.81;;;22.04;43.82
64158;BME280;50449;51.528;5.076;2022-08-21T03:06:11;101539.63;;;22.02;43.70
64158;BME280;50449;51.528;5.076;2022-08-21T03:08:37;101541.84;;;22.00;44.00
64158;BME280;50449;51.528;5.076;2022-08-21T03:11:03;101541.31;;;21.98;44.31
64158;BME280;50449;51.528;5.076;2022-08-21T03:13:29;101543.56;;;21.96;43.90
64158;BME280;50449;51.528;5.076;2022-08-21T03:15:55;101535.63;;;21.95;43.89
64158;BME280;50449;51.528;5.076;2022-08-21T03:18:21;101535.09;;;21.93;43.76
64158;BME280;50449;51.528;5.076;2022-08-21T03:20:47;101533.75;;;21.90;43.90
64158;BME280;50449;51.528;5.076;2022-08-21T03:23:13;101527.75;;;21.88;44.15
64158;BME280;50449;51.528;5.076;2022-08-21T03:25:39;101535.47;;;21.86;44.01
64158;BME280;50449;51.528;5.076;2022-08-21T03:28:11;101534.94;;;21.84;44.43
64158;BME280;50449;51.528;5.076;2022-08-21T03:30:37;101528.94;;;21.82;44.18
64158;BME280;50449;51.528;5.076;2022-08-21T03:33:02;101533.09;;;21.79;44.23
64158;BME280;50449;51.528;5.076;2022-08-21T03:35:28;101526.25;;;21.77;44.20
64158;BME280;50449;51.528;5.076;2022-08-21T03:37:54;101524.63;;;21.76;44.02
64158;BME280;50449;51.528;5.076;2022-08-21T03:40:21;101523.31;;;21.73;43.92
64158;BME280;50449;51.528;5.076;2022-08-21T03:42:47;101515.34;;;21.72;43.99
64158;BME280;50449;51.528;5.076;2022-08-21T03:45:15;101520.34;;;21.70;44.01
64158;BME280;50449;51.528;5.076;2022-08-21T03:47:59;101517.06;;;21.68;44.44
64158;BME280;50449;51.528;5.076;2022-08-21T03:50:27;101520.09;;;21.66;44.22
64158;BME280;50449;51.528;5.076;2022-08-21T03:52:53;101513.28;;;21.64;44.45
64158;BME280;50449;51.528;5.076;2022-08-21T03:55:18;101516.34;;;21.62;44.54
64158;BME280;50449;51.528;5.076;2022-08-21T03:57:44;101512.22;;;21.59;44.50
64158;BME280;50449;51.528;5.076;2022-08-21T04:00:11;101507.84;;;21.58;44.13
64158;BME280;50449;51.528;5.076;2022-08-21T04:02:38;101511.22;;;21.55;44.47
64158;BME280;50449;51.528;5.076;2022-08-21T04:05:04;101514.25;;;21.54;44.41
64158;BME280;50449;51.528;5.076;2022-08-21T04:07:30;101518.41;;;21.51;44.46
64158;BME280;50449;51.528;5.076;2022-08-21T04:09:56;101523.38;;;21.49;44.29
64158;BME280;50449;51.528;5.076;2022-08-21T04:12:21;101528.38;;;21.47;44.68
64158;BME280;50449;51.528;5.076;2022-08-21T04:14:47;101534.16;;;21.46;44.17
64158;BME280;50449;51.528;5.076;2022-08-21T04:17:12;101541.88;;;21.44;44.67
64158;BME280;50449;51.528;5.076;2022-08-21T04:19:37;101543.28;;;21.41;44.53
64158;BME280;50449;51.528;5.076;2022-08-21T04:22:03;101538.91;;;21.40;44.65
64158;BME280;50449;51.528;5.076;2022-08-21T04:24:29;101540.28;;;21.37;44.87
64158;BME280;50449;51.528;5.076;2022-08-21T04:26:54;101542.53;;;21.35;44.51
64158;BME280;50449;51.528;5.076;2022-08-21T04:29:19;101546.41;;;21.34;44.76
64158;BME280;50449;51.528;5.076;2022-08-21T04:31:45;101536.50;;;21.33;44.70
64158;BME280;50449;51.528;5.076;2022-08-21T04:34:10;101541.47;;;21.31;44.79
64158;BME280;50449;51.528;5.076;2022-08-21T04:36:36;101538.22;;;21.29;44.66
64158;BME280;50449;51.528;5.076;2022-08-21T04:39:01;101539.59;;;21.27;44.50
64158;BME280;50449;51.528;5.076;2022-08-21T04:41:27;101540.72;;;21.26;44.57
64158;BME280;50449;51.528;5.076;2022-08-21T04:43:52;101539.09;;;21.25;44.69
64158;BME280;50449;51.528;5.076;2022-08-21T04:46:19;101546.00;;;21.22;44.96
64158;BME280;50449;51.528;5.076;2022-08-21T04:48:45;101539.97;;;21.20;45.09
64158;BME280;50449;51.528;5.076;2022-08-21T04:51:24;101544.94;;;21.18;44.72
64158;BME280;50449;51.528;5.076;2022-08-21T04:53:54;101534.56;;;21.15;44.80
64158;BME280;50449;51.528;5.076;2022-08-21T04:56:34;101538.41;;;21.14;44.88
64158;BME280;50449;51.528;5.076;2022-08-21T04:59:04;101543.38;;;21.12;45.03
64158;BME280;50449;51.528;5.076;2022-08-21T05:01:34;101546.41;;;21.10;44.94
64158;BME280;50449;51.528;5.076;2022-08-21T05:04:02;101548.63;;;21.08;44.57
64158;BME280;50449;51.528;5.076;2022-08-21T05:06:31;101540.72;;;21.07;45.02
64158;BME280;50449;51.528;5.076;2022-08-21T05:08:58;101548.41;;;21.05;44.78
64158;BME280;50449;51.528;5.076;2022-08-21T05:11:24;101550.34;;;21.04;44.70
64158;BME280;50449;51.528;5.076;2022-08-21T05:13:49;101551.75;;;21.02;44.94
64158;BME280;50449;51.528;5.076;2022-08-21T05:16:15;101555.59;;;21.01;45.00
64158;BME280;50449;51.528;5.076;2022-08-21T05:18:41;101550.41;;;20.99;44.89
64158;BME280;50449;51.528;5.076;2022-08-21T05:21:07;101552.63;;;20.97;44.86
64158;BME280;50449;51.528;5.076;2022-08-21T05:23:32;101556.47;;;20.96;44.90
64158;BME280;50449;51.528;5.076;2022-08-21T05:25:57;101565.03;;;20.94;45.16
64158;BME280;50449;51.528;5.076;2022-08-21T05:28:23;101565.31;;;20.93;44.86
64158;BME280;50449;51.528;5.076;2022-08-21T05:30:48;101569.47;;;20.90;45.15
64158;BME280;50449;51.528;5.076;2022-08-21T05:33:14;101568.66;;;20.90;45.47
64158;BME280;50449;51.528;5.076;2022-08-21T05:35:40;101571.66;;;20.88;45.17
64158;BME280;50449;51.528;5.076;2022-08-21T05:38:06;101573.88;;;20.86;45.50
64158;BME280;50449;51.528;5.076;2022-08-21T05:40:32;101570.63;;;20.84;45.05
64158;BME280;50449;51.528;5.076;2022-08-21T05:42:58;101568.97;;;20.83;45.38
64158;BME280;50449;51.528;5.076;2022-08-21T05:45:28;101567.63;;;20.81;45.19
64158;BME280;50449;51.528;5.076;2022-08-21T05:47:54;101566.00;;;20.80;45.33
64158;BME280;50449;51.528;5.076;2022-08-21T05:50:19;101567.94;;;20.79;45.37
64158;BME280;50449;51.528;5.076;2022-08-21T05:52:45;101562.75;;;20.78;45.51
64158;BME280;50449;51.528;5.076;2022-08-21T05:55:10;101570.16;;;20.77;45.66
64158;BME280;50449;51.528;5.076;2022-08-21T05:57:36;101574.00;;;20.76;45.53
64158;BME280;50449;51.528;5.076;2022-08-21T06:00:03;101570.44;;;20.75;45.50
64158;BME280;50449;51.528;5.076;2022-08-21T06:02:28;101560.56;;;20.74;45.55
64158;BME280;50449;51.528;5.076;2022-08-21T06:04:56;101559.78;;;20.74;45.88
64158;BME280;50449;51.528;5.076;2022-08-21T06:07:22;101559.25;;;20.72;45.78
64158;BME280;50449;51.528;5.076;2022-08-21T06:09:47;101560.03;;;20.72;46.01
64158;BME280;50449;51.528;5.076;2022-08-21T06:12:13;101563.06;;;20.71;45.82
64158;BME280;50449;51.528;5.076;2022-08-21T06:14:40;101564.19;;;20.70;46.00
64158;BME280;50449;51.528;5.076;2022-08-21T06:17:12;101563.38;;;20.69;46.04
64158;BME280;50449;51.528;5.076;2022-08-21T06:19:39;101561.44;;;20.70;46.00
64158;BME280;50449;51.528;5.076;2022-08-21T06:22:04;101563.38;;;20.69;45.94
64158;BME280;50449;51.528;5.076;2022-08-21T06:24:30;101560.63;;;20.69;46.34
64158;BME280;50449;51.528;5.076;2022-08-21T06:26:56;101556.78;;;20.70;46.35
64158;BME280;50449;51.528;5.076;2022-08-21T06:29:22;101567.75;;;20.70;45.98
64158;BME280;50449;51.528;5.076;2022-08-21T06:31:50;101566.13;;;20.69;46.34
64158;BME280;50449;51.528;5.076;2022-08-21T06:34:16;101569.69;;;20.70;46.34
64158;BME280;50449;51.528;5.076;2022-08-21T06:36:41;101575.19;;;20.70;46.63
64158;BME280;50449;51.528;5.076;2022-08-21T06:39:07;101579.84;;;20.69;46.67
64158;BME280;50449;51.528;5.076;2022-08-21T06:41:32;101580.66;;;20.70;47.08
64158;BME280;50449;51.528;5.076;2022-08-21T06:43:58;101573.25;;;20.70;47.01
64158;BME280;50449;51.528;5.076;2022-08-21T06:46:24;101570.50;;;20.70;47.28
64158;BME280;50449;51.528;5.076;2022-08-21T06:48:50;101574.06;;;20.71;47.35
64158;BME280;50449;51.528;5.076;2022-08-21T06:51:15;101571.84;;;20.73;47.27
64158;BME280;50449;51.528;5.076;2022-08-21T06:53:41;101571.03;;;20.72;47.37
64158;BME280;50449;51.528;5.076;2022-08-21T06:56:06;101563.31;;;20.74;47.29
64158;BME280;50449;51.528;5.076;2022-08-21T06:58:32;101566.06;;;20.74;47.56
64158;BME280;50449;51.528;5.076;2022-08-21T07:00:57;101563.00;;;20.76;47.50
64158;BME280;50449;51.528;5.076;2022-08-21T07:03:29;101561.94;;;20.77;47.91
64158;BME280;50449;51.528;5.076;2022-08-21T07:05:55;101560.81;;;20.78;48.00
64158;BME280;50449;51.528;5.076;2022-08-21T07:08:22;101559.41;;;20.81;47.91
64158;BME280;50449;51.528;5.076;2022-08-21T07:10:48;101558.81;;;20.84;47.46
64158;BME280;50449;51.528;5.076;2022-08-21T07:13:14;101565.38;;;20.88;47.64
64158;BME280;50449;51.528;5.076;2022-08-21T07:15:40;101568.66;;;20.90;47.60
64158;BME280;50449;51.528;5.076;2022-08-21T07:18:06;101564.50;;;20.92;48.04
64158;BME280;50449;51.528;5.076;2022-08-21T07:20:31;101566.66;;;20.95;48.00
64158;BME280;50449;51.528;5.076;2022-08-21T07:22:59;101569.94;;;20.98;48.04
64158;BME280;50449;51.528;5.076;2022-08-21T07:25:26;101567.72;;;21.00;48.30
64158;BME280;50449;51.528;5.076;2022-08-21T07:27:52;101568.25;;;21.02;48.06
64158;BME280;50449;51.528;5.076;2022-08-21T07:30:18;101567.13;;;21.03;48.01
64158;BME280;50449;51.528;5.076;2022-08-21T07:32:43;101556.94;;;21.03;48.23
64158;BME280;50449;51.528;5.076;2022-08-21T07:35:09;101572.00;;;21.06;48.64
64158;BME280;50449;51.528;5.076;2022-08-21T07:37:34;101571.75;;;21.07;48.58
64158;BME280;50449;51.528;5.076;2022-08-21T07:40:00;101572.25;;;21.09;48.86
64158;BME280;50449;51.528;5.076;2022-08-21T07:42:25;101577.16;;;21.12;48.92
64158;BME280;50449;51.528;5.076;2022-08-21T07:44:51;101576.56;;;21.15;49.24
64158;BME280;50449;51.528;5.076;2022-08-21T07:47:16;101582.28;;;21.19;48.94
64158;BME280;50449;51.528;5.076;2022-08-21T07:49:42;101583.34;;;21.23;49.19
64158;BME280;50449;51.528;5.076;2022-08-21T07:52:07;101573.41;;;21.27;49.06
64158;BME280;50449;51.528;5.076;2022-08-21T07:54:32;101568.13;;;21.31;49.55
64158;BME280;50449;51.528;5.076;2022-08-21T07:56:58;101570.81;;;21.36;49.23
64158;BME280;50449;51.528;5.076;2022-08-21T07:59:23;101566.41;;;21.40;49.45
64158;BME280;50449;51.528;5.076;2022-08-21T08:01:49;101569.09;;;21.45;49.67
64158;BME280;50449;51.528;5.076;2022-08-21T08:04:14;101561.56;;;21.51;49.80
64158;BME280;50449;51.528;5.076;2022-08-21T08:06:40;101566.19;;;21.55;49.33
64158;BME280;50449;51.528;5.076;2022-08-21T08:09:06;101564.19;;;21.61;49.62
64158;BME280;50449;51.528;5.076;2022-08-21T08:11:31;101565.75;;;21.67;49.25
64158;BME280;50449;51.528;5.076;2022-08-21T08:13:57;101561.00;;;21.73;49.26
64158;BME280;50449;51.528;5.076;2022-08-21T08:16:25;101557.84;;;21.79;49.29
64158;BME280;50449;51.528;5.076;2022-08-21T08:18:51;101562.97;;;21.86;49.38
64158;BME280;50449;51.528;5.076;2022-08-21T08:21:17;101557.91;;;21.93;49.50
64158;BME280;50449;51.528;5.076;2022-08-21T08:23:46;101556.41;;;22.01;49.54
64158;BME280;50449;51.528;5.076;2022-08-21T08:26:11;101553.28;;;22.08;49.20
64158;BME280;50449;51.528;5.076;2022-08-21T08:28:37;101556.16;;;22.16;49.47
64158;BME280;50449;51.528;5.076;2022-08-21T08:31:03;101560.47;;;22.22;49.63
64158;BME280;50449;51.528;5.076;2022-08-21T08:33:29;101568.06;;;22.31;49.67
64158;BME280;50449;51.528;5.076;2022-08-21T08:35:54;101559.38;;;22.37;49.27
64158;BME280;50449;51.528;5.076;2022-08-21T08:38:22;101549.63;;;22.45;49.46
64158;BME280;50449;51.528;5.076;2022-08-21T08:41:00;101552.19;;;22.55;49.66
64158;BME280;50449;51.528;5.076;2022-08-21T08:43:32;101548.75;;;22.63;49.51
64158;BME280;50449;51.528;5.076;2022-08-21T08:46:02;101549.16;;;22.71;49.43
64158;BME280;50449;51.528;5.076;2022-08-21T08:51:08;101540.78;;;22.89;48.98
64158;BME280;50449;51.528;5.076;2022-08-21T08:53:45;101540.94;;;22.98;49.34
64158;BME280;50449;51.528;5.076;2022-08-21T08:56:13;101538.56;;;23.05;49.12
64158;BME280;50449;51.528;5.076;2022-08-21T08:58:41;101540.59;;;23.14;48.62
64158;BME280;50449;51.528;5.076;2022-08-21T09:01:15;101545.38;;;23.22;48.98
64158;BME280;50449;51.528;5.076;2022-08-21T09:03:41;101537.50;;;23.29;48.97
64158;BME280;50449;51.528;5.076;2022-08-21T09:06:18;101540.84;;;23.40;48.85
64158;BME280;50449;51.528;5.076;2022-08-21T09:11:51;101528.34;;;23.56;48.39
64158;BME280;50449;51.528;5.076;2022-08-21T09:14:39;101522.09;;;23.64;48.33
64158;BME280;50449;51.528;5.076;2022-08-21T09:17:23;101526.03;;;23.72;48.66
64158;BME280;50449;51.528;5.076;2022-08-21T09:20:12;101521.75;;;23.80;48.18
64158;BME280;50449;51.528;5.076;2022-08-21T09:22:54;101526.50;;;23.88;48.28
64158;BME280;50449;51.528;5.076;2022-08-21T09:25:31;101534.34;;;23.94;48.47
64158;BME280;50449;51.528;5.076;2022-08-21T09:27:57;101538.94;;;23.99;47.88
64158;BME280;50449;51.528;5.076;2022-08-21T09:30:29;101532.97;;;24.06;47.89
64158;BME280;50449;51.528;5.076;2022-08-21T09:32:55;101522.59;;;24.11;47.76
64158;BME280;50449;51.528;5.076;2022-08-21T09:35:23;101526.88;;;24.17;47.97
64158;BME280;50449;51.528;5.076;2022-08-21T09:40:39;101535.38;;;24.30;47.48
64158;BME280;50449;51.528;5.076;2022-08-21T09:43:17;101542.72;;;24.34;47.49
64158;BME280;50449;51.528;5.076;2022-08-21T09:45:44;101539.81;;;24.39;47.51
64158;BME280;50449;51.528;5.076;2022-08-21T09:48:11;101540.81;;;24.44;46.81
64158;BME280;50449;51.528;5.076;2022-08-21T09:50:37;101537.13;;;24.48;47.24
64158;BME280;50449;51.528;5.076;2022-08-21T09:53:03;101536.19;;;24.53;46.88
64158;BME280;50449;51.528;5.076;2022-08-21T09:55:37;101531.31;;;24.58;46.32
64158;BME280;50449;51.528;5.076;2022-08-21T09:58:30;101527.59;;;24.63;46.38
64158;BME280;50449;51.528;5.076;2022-08-21T10:01:01;101538.50;;;24.68;46.49
64158;BME280;50449;51.528;5.076;2022-08-21T10:03:28;101530.38;;;24.72;46.38
64158;BME280;50449;51.528;5.076;2022-08-21T10:05:59;101528.63;;;24.76;46.00
64158;BME280;50449;51.528;5.076;2022-08-21T10:08:28;101532.38;;;24.80;45.89
64158;BME280;50449;51.528;5.076;2022-08-21T10:10:57;101525.06;;;24.84;46.02
64158;BME280;50449;51.528;5.076;2022-08-21T10:18:33;101524.78;;;24.94;45.59
64158;BME280;50449;51.528;5.076;2022-08-21T10:21:04;101529.69;;;24.97;45.86
64158;BME280;50449;51.528;5.076;2022-08-21T10:26:10;101516.19;;;25.04;45.50
64158;BME280;50449;51.528;5.076;2022-08-21T10:29:19;101519.13;;;25.08;45.86
64158;BME280;50449;51.528;5.076;2022-08-21T10:32:02;101520.44;;;25.11;45.27
64158;BME280;50449;51.528;5.076;2022-08-21T10:42:59;101528.13;;;25.22;45.13
64158;BME280;50449;51.528;5.076;2022-08-21T10:45:41;101523.91;;;25.25;44.84
64158;BME280;50449;51.528;5.076;2022-08-21T10:48:19;101519.69;;;25.28;45.02
64158;BME280;50449;51.528;5.076;2022-08-21T10:56:40;101514.16;;;25.36;44.62
64158;BME280;50449;51.528;5.076;2022-08-21T10:59:29;101510.22;;;25.37;44.72
64158;BME280;50449;51.528;5.076;2022-08-21T11:02:00;101522.59;;;25.40;44.42
64158;BME280;50449;51.528;5.076;2022-08-21T11:04:35;101512.84;;;25.42;44.04
64158;BME280;50449;51.528;5.076;2022-08-21T11:07:30;101516.59;;;25.46;45.23
64158;BME280;50449;51.528;5.076;2022-08-21T11:10:03;101512.22;;;25.45;44.73
64158;BME280;50449;51.528;5.076;2022-08-21T11:12:56;101517.09;;;25.48;44.51
64158;BME280;50449;51.528;5.076;2022-08-21T11:15:49;101508.13;;;25.52;43.65
64158;BME280;50449;51.528;5.076;2022-08-21T11:18:31;101516.63;;;25.55;44.14
64158;BME280;50449;51.528;5.076;2022-08-21T11:21:14;101511.06;;;25.55;43.96
64158;BME280;50449;51.528;5.076;2022-08-21T11:26:45;101507.00;;;25.61;43.70
64158;BME280;50449;51.528;5.076;2022-08-21T11:29:17;101508.28;;;25.64;43.69
64158;BME280;50449;51.528;5.076;2022-08-21T11:35:02;101495.09;;;25.69;43.46
64158;BME280;50449;51.528;5.076;2022-08-21T11:41:02;101505.19;;;25.74;43.03
64158;BME280;50449;51.528;5.076;2022-08-21T11:46:11;101507.31;;;25.77;42.78
64158;BME280;50449;51.528;5.076;2022-08-21T11:51:22;101506.81;;;25.84;42.82
64158;BME280;50449;51.528;5.076;2022-08-21T11:57:13;101512.53;;;25.87;43.29
64158;BME280;50449;51.528;5.076;2022-08-21T12:00:00;101510.75;;;25.92;42.65
64158;BME280;50449;51.528;5.076;2022-08-21T12:02:32;101514.81;;;25.94;43.46
64158;BME280;50449;51.528;5.076;2022-08-21T12:05:03;101507.00;;;25.96;43.04
64158;BME280;50449;51.528;5.076;2022-08-21T12:07:37;101511.84;;;25.99;43.19
64158;BME280;50449;51.528;5.076;2022-08-21T12:10:07;101513.16;;;26.02;42.83
64158;BME280;50449;51.528;5.076;2022-08-21T12:12:38;101503.38;;;26.04;42.94
64158;BME280;50449;51.528;5.076;2022-08-21T12:26:18;101509.00;;;26.25;41.97
64158;BME280;50449;51.528;5.076;2022-08-21T12:28:46;101505.25;;;26.30;42.17
64158;BME280;50449;51.528;5.076;2022-08-21T12:31:24;101512.56;;;26.34;41.66
64158;BME280;50449;51.528;5.076;2022-08-21T12:33:57;101508.47;;;26.41;41.67
64158;BME280;50449;51.528;5.076;2022-08-21T12:36:57;101514.31;;;26.48;41.80
64158;BME280;50449;51.528;5.076;2022-08-21T12:39:26;101520.53;;;26.53;41.58
64158;BME280;50449;51.528;5.076;2022-08-21T12:42:24;101510.06;;;26.59;41.28
64158;BME280;50449;51.528;5.076;2022-08-21T12:45:04;101513.47;;;26.65;40.95
64158;BME280;50449;51.528;5.076;2022-08-21T12:47:47;101518.81;;;26.70;41.84
64158;BME280;50449;51.528;5.076;2022-08-21T12:50:22;101512.75;;;26.76;41.66
64158;BME280;50449;51.528;5.076;2022-08-21T12:53:00;101522.50;;;26.83;41.73
64158;BME280;50449;51.528;5.076;2022-08-21T12:55:31;101525.88;;;26.88;41.21
64158;BME280;50449;51.528;5.076;2022-08-21T12:57:57;101518.66;;;26.96;41.32
64158;BME280;50449;51.528;5.076;2022-08-21T13:00:24;101514.88;;;27.01;40.73
64158;BME280;50449;51.528;5.076;2022-08-21T13:02:52;101519.91;;;27.07;40.73
64158;BME280;50449;51.528;5.076;2022-08-21T13:05:36;101514.66;;;27.14;40.81
64158;BME280;50449;51.528;5.076;2022-08-21T13:08:07;101521.16;;;27.18;41.02
64158;BME280;50449;51.528;5.076;2022-08-21T13:10:35;101526.50;;;27.24;40.64
64158;BME280;50449;51.528;5.076;2022-08-21T13:13:04;101520.44;;;27.30;40.49
64158;BME280;50449;51.528;5.076;2022-08-21T13:15:36;101521.84;;;27.36;40.70
64158;BME280;50449;51.528;5.076;2022-08-21T13:18:04;101518.88;;;27.41;40.50
64158;BME280;50449;51.528;5.076;2022-08-21T13:20:34;101521.44;;;27.47;40.13
64158;BME280;50449;51.528;5.076;2022-08-21T13:23:03;101516.84;;;27.51;40.08
64158;BME280;50449;51.528;5.076;2022-08-21T13:25:35;101521.06;;;27.57;40.32
64158;BME280;50449;51.528;5.076;2022-08-21T13:28:06;101523.63;;;27.62;40.24
64158;BME280;50449;51.528;5.076;2022-08-21T13:30:33;101527.78;;;27.68;40.01
64158;BME280;50449;51.528;5.076;2022-08-21T13:33:00;101515.66;;;27.73;39.63
64158;BME280;50449;51.528;5.076;2022-08-21T13:38:24;101512.97;;;27.85;39.95
64158;BME280;50449;51.528;5.076;2022-08-21T13:40:53;101518.31;;;27.90;39.74
64158;BME280;50449;51.528;5.076;2022-08-21T13:43:27;101509.78;;;27.95;39.61
64158;BME280;50449;51.528;5.076;2022-08-21T13:45:54;101507.91;;;27.99;39.54
64158;BME280;50449;51.528;5.076;2022-08-21T13:48:22;101514.41;;;28.03;39.20
64158;BME280;50449;51.528;5.076;2022-08-21T13:50:50;101512.59;;;28.08;39.34
64158;BME280;50449;51.528;5.076;2022-08-21T13:55:50;101510.50;;;28.17;38.94
64158;BME280;50449;51.528;5.076;2022-08-21T13:58:45;101501.50;;;28.20;38.62
64158;BME280;50449;51.528;5.076;2022-08-21T14:01:48;101508.44;;;28.26;38.93
64158;BME280;50449;51.528;5.076;2022-08-21T14:04:24;101502.19;;;28.29;38.79
64158;BME280;50449;51.528;5.076;2022-08-21T14:06:51;101502.34;;;28.33;38.49